createdAt,value
2023-03-31T00:02:19.949Z,94067.69
2023-03-31T00:04:46.826Z,94070.81
2023-03-31T00:07:14.778Z,94064.03
2023-03-31T00:09:41.869Z,94065.94
2023-03-31T00:12:09.113Z,94068.69
2023-03-31T00:14:36.399Z,94058.38
2023-03-31T00:17:05.256Z,94050.28
2023-03-31T00:19:32.465Z,94049.22
2023-03-31T00:22:00.325Z,94052.66
2023-03-31T00:24:29.348Z,94047.94
2023-03-31T00:26:57.736Z,94043.66
2023-03-31T00:29:25.910Z,94043.56
2023-03-31T00:32:12.719Z,94041.81
2023-03-31T00:34:40.845Z,94037.81
2023-03-31T00:37:08.606Z,94036.03
2023-03-31T00:39:53.246Z,94017.31
2023-03-31T00:42:20.345Z,94013.31
2023-03-31T00:45:14.803Z,94010.53
2023-03-31T00:47:44.695Z,94004.91
2023-03-31T00:50:26.473Z,94003.88
2023-03-31T00:52:57.499Z,94007.38
2023-03-31T00:55:28.115Z,94014.25
2023-03-31T00:57:55.183Z,94032.66
2023-03-31T01:00:22.695Z,94029.66
2023-03-31T01:02:55.658Z,94037.16
2023-03-31T01:05:24.329Z,94022.91
2023-03-31T01:07:51.224Z,94009.13
2023-03-31T01:10:21.159Z,94003.44
2023-03-31T01:12:49.990Z,93994.56
2023-03-31T01:15:16.890Z,93985.56
2023-03-31T01:17:50.849Z,93990.97
2023-03-31T01:20:32.689Z,93989.63
2023-03-31T01:23:22.509Z,94006.97
2023-03-31T01:26:31.010Z,94011.94
2023-03-31T01:29:10.024Z,94004.44
2023-03-31T01:32:14.053Z,93991.78
2023-03-31T01:35:08.420Z,93986.75
2023-03-31T01:37:46.615Z,93977.56
2023-03-31T01:40:26.958Z,93966.91
2023-03-31T01:43:07.687Z,93957.66
2023-03-31T01:45:40.451Z,93939.28
2023-03-31T01:48:17.365Z,93953.91
2023-03-31T01:51:05.100Z,93943.16
2023-03-31T01:54:10.365Z,93937.28
2023-03-31T01:57:09.245Z,93926.84
2023-03-31T02:00:03.398Z,93927.84
2023-03-31T02:02:32.696Z,93915.34
2023-03-31T02:05:05.973Z,93893.06
2023-03-31T02:07:36.020Z,93901.13
2023-03-31T02:10:04.927Z,93895.06
2023-03-31T02:12:31.999Z,93870.59
2023-03-31T02:14:59.003Z,93875.81
2023-03-31T02:17:26.229Z,93848.50
2023-03-31T02:19:53.071Z,93840.66
2023-03-31T02:22:22.860Z,93832.16
2023-03-31T02:24:49.995Z,93824.28
2023-03-31T02:27:23.327Z,93816.06
2023-03-31T02:29:51.571Z,93810.19
2023-03-31T02:32:23.903Z,93800.25
2023-03-31T02:34:50.769Z,93804.97
2023-03-31T02:37:17.576Z,93794.66
2023-03-31T02:39:48.711Z,93794.75
2023-03-31T02:42:15.539Z,93780.13
2023-03-31T02:44:42.357Z,93744.22
2023-03-31T02:47:11.919Z,93734.06
2023-03-31T02:49:43.022Z,93742.47
2023-03-31T02:52:28.168Z,93739.81
2023-03-31T02:55:11.563Z,93731.59
2023-03-31T02:58:28.798Z,93726.28
2023-03-31T03:01:06.329Z,93745.28
2023-03-31T03:03:45.490Z,93755.78
2023-03-31T03:06:12.115Z,93765.50
2023-03-31T03:09:05.168Z,93789.84
2023-03-31T03:11:39.436Z,93811.28
2023-03-31T03:14:24.304Z,93819.94
2023-03-31T03:16:56.401Z,93822.75
2023-03-31T03:19:32.206Z,93812.97
2023-03-31T03:21:59.069Z,93785.13
2023-03-31T03:24:26.397Z,93761.56
2023-03-31T03:26:54.580Z,93759.50
2023-03-31T03:29:22.462Z,93743.69
2023-03-31T03:31:49.563Z,93726.84
2023-03-31T03:34:19.179Z,93734.78
2023-03-31T03:36:47.457Z,93736.53
2023-03-31T03:39:14.407Z,93726.91
2023-03-31T03:41:41.958Z,93695.44
2023-03-31T03:44:11.598Z,93719.19
2023-03-31T03:46:38.306Z,93696.66
2023-03-31T03:49:05.730Z,93708.34
2023-03-31T03:51:32.619Z,93710.56
2023-03-31T03:54:00.213Z,93705.22
2023-03-31T03:56:27.460Z,93686.41
2023-03-31T03:58:54.433Z,93681.00
2023-03-31T04:01:21.569Z,93687.28
2023-03-31T04:03:49.156Z,93681.75
2023-03-31T04:06:18.097Z,93661.28
2023-03-31T04:08:45.821Z,93664.91
2023-03-31T04:11:19.227Z,93658.78
2023-03-31T04:16:50.970Z,93680.38
2023-03-31T04:19:18.034Z,93668.88
2023-03-31T04:21:44.814Z,93666.69
2023-03-31T04:24:12.577Z,93680.47
2023-03-31T04:26:39.377Z,93666.44
2023-03-31T04:29:10.041Z,93654.09
2023-03-31T04:31:37.122Z,93668.03
2023-03-31T04:34:06.692Z,93665.78
2023-03-31T04:36:34.121Z,93655.97
2023-03-31T04:39:00.878Z,93642.53
2023-03-31T04:41:28.098Z,93651.66
2023-03-31T04:43:56.099Z,93640.94
2023-03-31T04:46:22.905Z,93645.22
2023-03-31T04:48:50.469Z,93639.75
2023-03-31T04:51:20.042Z,93651.53
2023-03-31T04:53:47.055Z,93642.59
2023-03-31T04:56:15.959Z,93640.09
2023-03-31T04:58:45.510Z,93644.16
2023-03-31T05:01:13.443Z,93658.63
2023-03-31T05:03:40.978Z,93658.03
2023-03-31T05:06:09.024Z,93651.91
2023-03-31T05:08:38.419Z,93632.09
2023-03-31T05:11:05.251Z,93645.88
2023-03-31T05:13:33.169Z,93654.31
2023-03-31T05:16:06.568Z,93633.94
2023-03-31T05:18:33.731Z,93639.28
2023-03-31T05:21:21.620Z,93633.19
2023-03-31T05:23:49.031Z,93633.94
2023-03-31T05:26:15.804Z,93630.31
2023-03-31T05:28:42.870Z,93620.69
2023-03-31T05:31:10.152Z,93623.50
2023-03-31T05:33:36.909Z,93624.81
2023-03-31T05:36:04.154Z,93621.50
2023-03-31T05:38:31.176Z,93612.84
2023-03-31T05:40:57.877Z,93622.53
2023-03-31T05:43:24.905Z,93625.91
2023-03-31T05:45:52.094Z,93624.88
2023-03-31T05:48:18.916Z,93626.38
2023-03-31T05:50:47.142Z,93625.38
2023-03-31T05:53:14.228Z,93632.31
2023-03-31T05:55:41.029Z,93629.00
2023-03-31T05:58:07.812Z,93625.19
2023-03-31T06:00:35.774Z,93629.78
2023-03-31T06:03:03.062Z,93632.84
2023-03-31T06:05:30.318Z,93632.06
2023-03-31T06:07:57.059Z,93648.94
2023-03-31T06:10:23.823Z,93668.34
2023-03-31T06:12:50.871Z,93661.81
2023-03-31T06:15:17.787Z,93658.97
2023-03-31T06:17:47.676Z,93676.28
2023-03-31T06:20:27.245Z,93677.31
2023-03-31T06:22:54.822Z,93680.91
2023-03-31T06:25:30.644Z,93677.59
2023-03-31T06:27:59.668Z,93681.44
2023-03-31T06:30:26.924Z,93685.53
2023-03-31T06:32:56.501Z,93696.25
2023-03-31T06:35:26.214Z,93695.91
2023-03-31T06:37:52.999Z,93707.00
2023-03-31T06:40:20.107Z,93692.63
2023-03-31T06:42:46.876Z,93679.88
2023-03-31T06:45:13.945Z,93694.91
2023-03-31T06:47:41.251Z,93668.09
2023-03-31T06:50:10.358Z,93677.69
2023-03-31T06:52:37.174Z,93683.88
2023-03-31T06:55:04.946Z,93686.19
2023-03-31T06:57:32.201Z,93681.13
2023-03-31T07:00:01.958Z,93682.13
2023-03-31T07:02:29.312Z,93701.03
2023-03-31T07:04:56.418Z,93688.22
2023-03-31T07:07:25.970Z,93701.25
2023-03-31T07:09:56.375Z,93699.19
2023-03-31T07:12:23.750Z,93683.88
2023-03-31T07:14:54.308Z,93691.09
2023-03-31T07:17:21.023Z,93675.03
2023-03-31T07:19:48.336Z,93684.22
2023-03-31T07:22:18.020Z,93685.59
2023-03-31T07:24:44.864Z,93684.22
2023-03-31T07:27:17.506Z,93686.31
2023-03-31T07:29:44.578Z,93685.28
2023-03-31T07:32:30.346Z,93687.78
2023-03-31T07:34:57.414Z,93672.97
2023-03-31T07:37:24.251Z,93681.25
2023-03-31T07:39:51.025Z,93677.41
2023-03-31T07:42:19.543Z,93671.94
2023-03-31T07:44:46.786Z,93668.69
2023-03-31T07:47:15.220Z,93656.00
2023-03-31T07:49:52.398Z,93651.19
2023-03-31T07:52:19.409Z,93659.13
2023-03-31T07:54:47.236Z,93651.75
2023-03-31T07:57:14.422Z,93657.63
2023-03-31T07:59:42.030Z,93652.50
2023-03-31T08:02:12.325Z,93647.41
2023-03-31T08:04:39.202Z,93639.78
2023-03-31T08:07:06.271Z,93651.78
2023-03-31T08:09:36.429Z,93657.16
2023-03-31T08:12:06.485Z,93659.22
2023-03-31T08:14:41.009Z,93643.34
2023-03-31T08:17:21.220Z,93640.53
2023-03-31T08:19:49.061Z,93644.13
2023-03-31T08:22:16.166Z,93657.44
2023-03-31T08:24:44.090Z,93658.97
2023-03-31T08:27:12.501Z,93649.25
2023-03-31T08:29:39.492Z,93661.00
2023-03-31T08:32:06.536Z,93668.66
2023-03-31T08:34:33.355Z,93676.59
2023-03-31T08:37:00.952Z,93674.53
2023-03-31T08:39:28.832Z,93673.75
2023-03-31T08:42:02.633Z,93665.59
2023-03-31T08:44:45.647Z,93662.28
2023-03-31T08:47:18.992Z,93669.97
2023-03-31T08:49:57.125Z,93674.53
2023-03-31T08:52:27.543Z,93678.66
2023-03-31T08:54:59.698Z,93669.94
2023-03-31T08:57:45.824Z,93660.75
2023-03-31T09:00:17.732Z,93667.63
2023-03-31T09:03:01.627Z,93664.56
2023-03-31T09:05:59.601Z,93673.28
2023-03-31T09:08:38.410Z,93673.03
2023-03-31T09:11:13.700Z,93672.00
2023-03-31T09:14:07.490Z,93661.78
2023-03-31T09:16:40.867Z,93653.06
2023-03-31T09:19:30.475Z,93648.22
2023-03-31T09:21:57.548Z,93639.53
2023-03-31T09:24:32.210Z,93639.78
2023-03-31T09:27:01.560Z,93633.41
2023-03-31T09:29:54.366Z,93631.63
2023-03-31T09:32:30.367Z,93665.06
2023-03-31T09:35:18.348Z,93654.06
2023-03-31T09:37:45.397Z,93633.88
2023-03-31T09:40:21.174Z,93635.91
2023-03-31T09:42:48.655Z,93638.47
2023-03-31T09:45:18.095Z,93632.88
2023-03-31T09:47:54.003Z,93635.97
2023-03-31T09:50:25.174Z,93641.84
2023-03-31T09:52:56.713Z,93635.19
2023-03-31T09:55:38.743Z,93610.13
2023-03-31T09:58:07.865Z,93598.38
2023-03-31T10:00:36.204Z,93585.84
2023-03-31T10:03:04.949Z,93577.44
2023-03-31T10:05:38.262Z,93588.16
2023-03-31T10:08:29.802Z,93607.06
2023-03-31T10:11:06.723Z,93585.63
2023-03-31T10:14:07.523Z,93588.69
2023-03-31T10:16:43.731Z,93573.28
2023-03-31T10:19:16.983Z,93556.09
2023-03-31T10:21:45.504Z,93546.84
2023-03-31T10:24:13.226Z,93561.47
2023-03-31T10:26:39.968Z,93560.22
2023-03-31T10:29:18.404Z,93556.41
2023-03-31T10:31:46.418Z,93543.13
2023-03-31T10:34:16.149Z,93576.66
2023-03-31T10:36:46.585Z,93568.72
2023-03-31T10:39:15.407Z,93550.59
2023-03-31T10:41:42.926Z,93559.25
2023-03-31T10:44:45.710Z,93563.56
2023-03-31T10:47:15.246Z,93575.09
2023-03-31T10:49:43.220Z,93572.84
2023-03-31T10:52:22.216Z,93556.22
2023-03-31T10:54:51.521Z,93559.28
2023-03-31T10:57:19.901Z,93571.03
2023-03-31T11:00:02.469Z,93585.59
2023-03-31T11:02:51.035Z,93541.91
2023-03-31T11:05:42.548Z,93523.50
2023-03-31T11:08:30.701Z,93513.56
2023-03-31T11:14:09.824Z,93506.66
2023-03-31T11:16:52.272Z,93507.91
2023-03-31T11:19:54.570Z,93511.25
2023-03-31T11:22:34.280Z,93515.59
2023-03-31T11:25:21.747Z,93495.13
2023-03-31T11:27:51.550Z,93511.47
2023-03-31T11:31:04.412Z,93500.47
2023-03-31T11:33:47.514Z,93509.38
2023-03-31T11:36:32.814Z,93517.81
2023-03-31T11:39:10.923Z,93542.91
2023-03-31T11:41:38.919Z,93564.13
2023-03-31T11:44:07.375Z,93585.47
2023-03-31T11:46:49.523Z,93578.25
2023-03-31T11:49:22.828Z,93601.31
2023-03-31T11:52:29.136Z,93632.81
2023-03-31T11:55:03.598Z,93617.13
2023-03-31T11:57:43.438Z,93660.50
2023-03-31T12:00:18.156Z,93656.06
2023-03-31T12:03:11.825Z,93666.94
2023-03-31T12:05:50.369Z,93694.13
2023-03-31T12:08:37.170Z,93688.44
2023-03-31T12:11:31.985Z,93676.00
2023-03-31T12:14:41.234Z,93694.25
2023-03-31T12:17:14.049Z,93658.72
2023-03-31T12:19:47.285Z,93657.50
2023-03-31T12:22:17.359Z,93672.91
2023-03-31T12:24:44.156Z,93670.03
2023-03-31T12:27:27.620Z,93661.38
2023-03-31T12:30:22.219Z,93673.66
2023-03-31T12:32:53.463Z,93650.44
2023-03-31T12:35:21.366Z,93635.97
2023-03-31T12:38:22.561Z,93643.81
2023-03-31T12:41:04.465Z,93622.53
2023-03-31T12:44:09.843Z,93622.13
2023-03-31T12:46:52.259Z,93604.09
2023-03-31T12:49:25.438Z,93602.00
2023-03-31T12:52:03.613Z,93605.66
2023-03-31T12:54:40.353Z,93604.31
2023-03-31T12:57:10.462Z,93593.66
2023-03-31T12:59:41.671Z,93586.06
2023-03-31T13:02:27.823Z,93589.44
2023-03-31T13:04:55.092Z,93591.22
2023-03-31T13:07:37.945Z,93582.50
2023-03-31T13:10:14.955Z,93566.16
2023-03-31T13:12:42.979Z,93562.34
2023-03-31T13:15:13.588Z,93547.75
2023-03-31T13:17:40.667Z,93535.47
2023-03-31T13:20:39.875Z,93525.13
2023-03-31T13:23:23.142Z,93510.69
2023-03-31T13:25:54.252Z,93519.25
2023-03-31T13:28:31.811Z,93523.69
2023-03-31T13:31:07.080Z,93518.69
2023-03-31T13:33:58.240Z,93508.91
2023-03-31T13:36:59.834Z,93507.72
2023-03-31T13:40:14.381Z,93492.28
2023-03-31T13:43:21.081Z,93494.97
2023-03-31T13:45:55.708Z,93480.59
2023-03-31T13:48:39.988Z,93479.41
2023-03-31T13:51:40.715Z,93473.13
2023-03-31T13:54:44.812Z,93462.19
2023-03-31T13:57:33.319Z,93455.13
2023-03-31T14:00:25.747Z,93453.53
2023-03-31T14:03:12.767Z,93458.03
2023-03-31T14:05:45.594Z,93463.53
2023-03-31T14:08:15.268Z,93468.34
2023-03-31T14:10:44.268Z,93478.31
2023-03-31T14:13:20.462Z,93471.00
2023-03-31T14:15:58.514Z,93459.72
2023-03-31T14:18:27.395Z,93452.81
2023-03-31T14:21:30.991Z,93467.34
2023-03-31T14:24:19.257Z,93493.66
2023-03-31T14:26:58.624Z,93537.66
2023-03-31T14:29:34.214Z,93570.41
2023-03-31T14:32:28.674Z,93585.53
2023-03-31T14:35:09.480Z,93532.88
2023-03-31T14:37:36.520Z,93556.69
2023-03-31T14:40:04.453Z,93543.97
2023-03-31T14:43:00.207Z,93540.13
2023-03-31T14:45:27.017Z,93561.94
2023-03-31T14:48:18.165Z,93542.47
2023-03-31T14:50:46.201Z,93527.47
2023-03-31T14:53:22.801Z,93529.09
2023-03-31T14:56:03.164Z,93489.53
2023-03-31T14:58:41.267Z,93439.31
2023-03-31T15:01:08.798Z,93430.56
2023-03-31T15:03:36.718Z,93427.06
2023-03-31T15:06:05.461Z,93438.25
2023-03-31T15:08:35.408Z,93444.13
2023-03-31T15:14:01.080Z,93477.84
2023-03-31T15:16:43.047Z,93474.69
2023-03-31T15:19:29.767Z,93496.78
2023-03-31T15:22:11.374Z,93521.31
2023-03-31T15:24:38.502Z,93533.75
2023-03-31T15:27:10.578Z,93542.34
2023-03-31T15:29:51.223Z,93550.94
2023-03-31T15:32:38.135Z,93561.28
2023-03-31T15:35:18.660Z,93560.81
2023-03-31T15:37:50.411Z,93562.19
2023-03-31T15:40:24.252Z,93542.09
2023-03-31T15:43:06.294Z,93555.22
2023-03-31T15:45:47.906Z,93565.56
2023-03-31T15:48:40.661Z,93561.06
2023-03-31T15:51:16.945Z,93558.97
2023-03-31T15:53:50.586Z,93551.28
2023-03-31T15:56:43.027Z,93545.50
2023-03-31T15:59:33.740Z,93536.91
2023-03-31T16:02:05.179Z,93535.44
2023-03-31T16:04:32.754Z,93532.25
2023-03-31T16:07:04.132Z,93523.06
2023-03-31T16:10:16.026Z,93512.50
2023-03-31T16:12:55.169Z,93519.41
2023-03-31T16:15:29.475Z,93505.66
2023-03-31T16:18:03.810Z,93505.25
2023-03-31T16:20:33.101Z,93492.88
2023-03-31T16:22:59.889Z,93497.69
2023-03-31T16:25:29.634Z,93495.13
2023-03-31T16:27:57.486Z,93536.63
2023-03-31T16:30:34.597Z,93537.22
2023-03-31T16:33:08.267Z,93537.31
2023-03-31T16:35:36.337Z,93550.81
2023-03-31T16:38:06.751Z,93546.69
2023-03-31T16:43:31.790Z,93583.03
2023-03-31T16:45:59.801Z,93577.31
2023-03-31T16:48:28.283Z,93580.06
2023-03-31T16:50:57.218Z,93584.66
2023-03-31T16:53:25.797Z,93580.53
2023-03-31T16:55:54.185Z,93584.69
2023-03-31T16:58:21.085Z,93614.16
2023-03-31T17:00:47.970Z,93617.50
2023-03-31T17:03:15.216Z,93625.16
2023-03-31T17:05:46.484Z,93626.28
2023-03-31T17:08:13.318Z,93649.38
2023-03-31T17:10:40.422Z,93645.72
2023-03-31T17:13:09.743Z,93652.06
2023-03-31T17:15:36.955Z,93650.91
2023-03-31T17:18:04.553Z,93648.06
2023-03-31T17:20:31.520Z,93651.59
2023-03-31T17:22:58.419Z,93645.66
2023-03-31T17:25:25.178Z,93646.41
2023-03-31T17:27:54.314Z,93637.03
2023-03-31T17:30:22.522Z,93643.91
2023-03-31T17:32:52.010Z,93638.72
2023-03-31T17:35:19.528Z,93638.03
2023-03-31T17:37:49.154Z,93630.34
2023-03-31T17:40:16.250Z,93627.84
2023-03-31T17:42:43.157Z,93640.69
2023-03-31T17:45:10.783Z,93644.50
2023-03-31T17:47:38.461Z,93644.53
2023-03-31T17:50:07.631Z,93655.78
2023-03-31T17:52:35.041Z,93668.38
2023-03-31T17:55:04.877Z,93682.34
2023-03-31T17:57:32.189Z,93686.78
2023-03-31T17:59:59.236Z,93692.09
2023-03-31T18:02:27.007Z,93706.25
2023-03-31T18:04:54.461Z,93718.38
2023-03-31T18:07:21.258Z,93717.50
2023-03-31T18:09:48.417Z,93741.09
2023-03-31T18:12:15.163Z,93731.25
2023-03-31T18:14:42.220Z,93732.13
2023-03-31T18:17:09.280Z,93735.09
2023-03-31T18:19:36.270Z,93735.91
2023-03-31T18:22:03.049Z,93728.56
2023-03-31T18:24:29.897Z,93742.00
2023-03-31T18:26:56.601Z,93737.03
2023-03-31T18:29:24.645Z,93736.38
2023-03-31T18:32:02.899Z,93748.22
2023-03-31T18:34:31.888Z,93741.09
2023-03-31T18:36:59.785Z,93750.13
2023-03-31T18:39:26.625Z,93753.94
2023-03-31T18:41:55.053Z,93744.03
2023-03-31T18:44:27.031Z,93745.81
2023-03-31T18:46:53.924Z,93742.75
2023-03-31T18:49:24.603Z,93732.66
2023-03-31T18:51:52.713Z,93740.09
2023-03-31T18:54:20.627Z,93724.72
2023-03-31T18:56:47.756Z,93737.19
2023-03-31T18:59:15.794Z,93734.75
2023-03-31T19:01:42.452Z,93742.09
2023-03-31T19:04:10.334Z,93747.19
2023-03-31T19:06:37.276Z,93751.03
2023-03-31T19:09:04.044Z,93755.09
2023-03-31T19:11:30.831Z,93766.44
2023-03-31T19:14:00.241Z,93769.28
2023-03-31T19:16:27.145Z,93772.53
2023-03-31T19:18:55.139Z,93770.56
2023-03-31T19:21:22.332Z,93770.06
2023-03-31T19:23:49.042Z,93775.34
2023-03-31T19:26:16.990Z,93770.81
2023-03-31T19:28:43.842Z,93773.31
2023-03-31T19:31:11.384Z,93761.91
2023-03-31T19:33:38.244Z,93765.38
2023-03-31T19:36:05.209Z,93769.25
2023-03-31T19:38:32.426Z,93770.50
2023-03-31T19:40:59.502Z,93770.63
2023-03-31T19:43:27.211Z,93762.09
2023-03-31T19:45:56.255Z,93768.16
2023-03-31T19:48:23.341Z,93768.13
2023-03-31T19:50:51.088Z,93759.06
2023-03-31T19:53:19.108Z,93769.78
2023-03-31T19:55:55.262Z,93784.81
2023-03-31T19:58:22.672Z,93782.50
2023-03-31T20:00:54.233Z,93776.53
2023-03-31T20:03:37.560Z,93776.44
2023-03-31T20:06:09.263Z,93773.28
2023-03-31T20:08:36.300Z,93775.28
2023-03-31T20:11:04.376Z,93777.13
2023-03-31T20:13:32.423Z,93776.66
2023-03-31T20:16:00.498Z,93780.31
2023-03-31T20:18:27.817Z,93777.72
2023-03-31T20:21:14.118Z,93778.66
2023-03-31T20:23:41.326Z,93777.69
2023-03-31T20:26:09.857Z,93779.91
2023-03-31T20:28:37.493Z,93780.69
2023-03-31T20:31:22.975Z,93779.31
2023-03-31T20:33:50.709Z,93775.78
2023-03-31T20:36:19.166Z,93768.25
2023-03-31T20:38:47.336Z,93764.38
2023-03-31T20:41:15.201Z,93749.09
2023-03-31T20:43:41.939Z,93757.16
2023-03-31T20:46:11.680Z,93745.44
2023-03-31T20:48:40.732Z,93758.81
2023-03-31T20:51:08.898Z,93759.19
2023-03-31T20:57:09.403Z,93755.66
2023-03-31T20:59:37.541Z,93747.84
2023-03-31T21:02:05.421Z,93752.47
2023-03-31T21:04:32.362Z,93752.75
2023-03-31T21:06:59.055Z,93762.94
2023-03-31T21:13:04.162Z,93759.84
2023-03-31T21:15:32.631Z,93775.53
2023-03-31T21:18:01.211Z,93765.41
2023-03-31T21:20:28.967Z,93774.97
2023-03-31T21:22:55.791Z,93763.31
2023-03-31T21:25:25.193Z,93763.31
2023-03-31T21:27:53.370Z,93765.78
2023-03-31T21:30:20.435Z,93763.31
2023-03-31T21:32:48.414Z,93764.78
2023-03-31T21:35:18.428Z,93778.47
2023-03-31T21:37:47.545Z,93777.00
2023-03-31T21:40:15.888Z,93774.09
2023-03-31T21:42:43.010Z,93766.56
2023-03-31T21:45:11.385Z,93776.34
2023-03-31T21:47:39.023Z,93775.47
2023-03-31T21:50:08.686Z,93772.09
2023-03-31T21:52:43.785Z,93778.75
2023-03-31T21:55:18.260Z,93777.00
2023-03-31T22:00:28.277Z,93756.84
2023-03-31T22:03:06.330Z,93756.06
2023-03-31T22:05:43.979Z,93749.16
2023-03-31T22:08:11.526Z,93752.81
2023-03-31T22:10:41.188Z,93743.16
2023-03-31T22:13:09.596Z,93752.88
2023-03-31T22:15:37.424Z,93761.72
2023-03-31T22:18:04.753Z,93774.16
2023-03-31T22:20:32.664Z,93774.16
2023-03-31T22:23:00.099Z,93769.94
2023-03-31T22:25:30.733Z,93777.44
2023-03-31T22:27:59.152Z,93772.75
2023-03-31T22:30:28.740Z,93778.19
2023-03-31T22:32:55.953Z,93770.41
2023-03-31T22:35:28.040Z,93773.38
2023-03-31T22:37:55.269Z,93779.97
2023-03-31T22:40:23.116Z,93794.09
2023-03-31T22:42:54.989Z,93785.56
2023-03-31T22:45:22.045Z,93793.06
2023-03-31T22:47:49.170Z,93789.88
2023-03-31T22:50:16.457Z,93795.84
2023-03-31T22:52:43.567Z,93797.25
2023-03-31T22:55:10.649Z,93797.66
2023-03-31T22:57:37.941Z,93809.63
2023-03-31T23:00:06.573Z,93803.38
2023-03-31T23:02:35.067Z,93795.84
2023-03-31T23:05:02.286Z,93803.34
2023-03-31T23:07:29.380Z,93787.00
2023-03-31T23:09:56.447Z,93799.75
2023-03-31T23:12:25.801Z,93806.50
2023-03-31T23:14:53.678Z,93807.44
2023-03-31T23:17:20.550Z,93800.59
2023-03-31T23:19:47.879Z,93803.88
2023-03-31T23:22:17.548Z,93812.81
2023-03-31T23:24:44.897Z,93815.31
2023-03-31T23:27:11.974Z,93819.63
2023-03-31T23:29:41.687Z,93820.56
2023-03-31T23:32:08.918Z,93821.94
2023-03-31T23:34:35.877Z,93814.22
2023-03-31T23:37:03.327Z,93828.91
2023-03-31T23:39:32.867Z,93823.94
2023-03-31T23:42:00.006Z,93823.41
2023-03-31T23:44:28.631Z,93822.16
2023-03-31T23:46:55.708Z,93821.13
2023-03-31T23:49:23.006Z,93826.50
2023-03-31T23:51:52.546Z,93821.06
2023-03-31T23:54:20.501Z,93819.94
2023-03-31T23:56:48.197Z,93817.75
2023-03-31T23:59:18.330Z,93806.50
